Time;durP1;ratioP1;P1;durP2;ratioP2;P2;SDS_P1;SDS_P2;PMS_P1;PMS_P2;Temp;Humidity;BMP_temperature;BMP_pressure;BME280_temperature;BME280_humidity;BME280_pressure;Samples;Min_cycle;Max_cycle;Signal;HPM_P1;HPM_P2
2021/05/17 00:02:46;;;;;;;9.47;5.13;;;8.00;99.90;;;;;;4447887;28;656599;-73
2021/05/17 00:05:34;;;;;;;9.53;5.23;;;7.90;99.90;;;;;;4430950;28;655575;-73
2021/05/17 00:08:21;;;;;;;8.93;5.40;;;7.90;99.90;;;;;;4449109;28;655424;-72
2021/05/17 00:11:09;;;;;;;12.67;5.27;;;7.90;99.90;;;;;;4429326;28;655417;-72
2021/05/17 00:13:56;;;;;;;10.63;5.97;;;7.90;99.90;;;;;;4441702;28;656472;-73
2021/05/17 00:16:43;;;;;;;15.60;6.93;;;7.90;99.90;;;;;;4428961;28;656511;-73
2021/05/17 00:19:31;;;;;;;15.40;7.10;;;7.90;99.90;;;;;;4447663;28;657425;-73
2021/05/17 00:22:18;;;;;;;13.20;7.67;;;7.90;99.90;;;;;;4428464;28;656675;-73
2021/05/17 00:25:06;;;;;;;13.27;8.13;;;7.90;99.90;;;;;;4451282;28;657451;-72
2021/05/17 00:27:55;;;;;;;11.43;6.77;;;7.90;99.90;;;;;;4421600;28;656409;-73
2021/05/17 00:30:43;;;;;;;15.37;6.60;;;7.90;99.90;;;;;;4440061;28;656704;-73
2021/05/17 00:33:30;;;;;;;12.90;5.77;;;7.90;99.90;;;;;;4447241;28;657240;-72
2021/05/17 00:36:19;;;;;;;12.63;6.23;;;7.90;99.90;;;;;;4432021;28;656307;-73
2021/05/17 00:39:07;;;;;;;14.50;6.13;;;7.90;99.90;;;;;;4443707;28;656588;-72
2021/05/17 00:41:55;;;;;;;10.53;5.97;;;7.80;99.90;;;;;;4428421;28;657355;-72
2021/05/17 00:45:01;;;;;;;14.07;6.30;;;7.90;99.90;;;;;;4443071;28;656794;-73
2021/05/17 00:47:49;;;;;;;13.90;5.80;;;7.90;99.90;;;;;;4397644;28;656546;-73
2021/05/17 00:50:36;;;;;;;10.90;5.97;;;8.00;99.90;;;;;;4446567;28;657534;-72
2021/05/17 00:53:24;;;;;;;11.50;5.40;;;8.00;99.90;;;;;;4429229;28;656389;-73
2021/05/17 00:56:11;;;;;;;13.00;5.80;;;8.00;99.90;;;;;;4447968;28;656764;-72
2021/05/17 00:58:59;;;;;;;9.07;5.18;;;8.00;99.90;;;;;;4428964;28;657329;-73
2021/05/17 01:01:46;;;;;;;10.50;5.57;;;8.10;99.90;;;;;;4442334;28;655534;-73
2021/05/17 01:04:33;;;;;;;10.97;4.00;;;8.20;99.90;;;;;;4427702;28;657488;-73
2021/05/17 01:07:20;;;;;;;10.27;5.00;;;8.20;99.90;;;;;;4441055;28;657699;-73
2021/05/17 01:10:09;;;;;;;7.43;4.20;;;8.20;99.90;;;;;;4440758;28;656505;-73
2021/05/17 01:12:56;;;;;;;7.80;4.80;;;8.30;99.90;;;;;;4451344;28;655829;-73
2021/05/17 01:15:43;;;;;;;9.32;4.60;;;8.40;99.90;;;;;;4429534;28;656191;-73
2021/05/17 01:18:31;;;;;;;10.55;5.00;;;8.50;99.90;;;;;;4451975;28;656460;-72
2021/05/17 01:21:18;;;;;;;13.40;5.30;;;8.50;99.90;;;;;;4426573;28;657094;-73
2021/05/17 01:24:07;;;;;;;8.23;4.50;;;8.60;99.90;;;;;;4446318;28;658273;-73
2021/05/17 01:26:54;;;;;;;8.37;4.63;;;8.60;99.90;;;;;;4420914;28;656016;-72
2021/05/17 01:29:41;;;;;;;7.23;4.13;;;8.70;99.90;;;;;;4446970;28;656449;-73
2021/05/17 01:32:28;;;;;;;6.85;4.55;;;8.80;99.90;;;;;;4428540;28;655962;-72
2021/05/17 01:35:16;;;;;;;6.00;4.03;;;8.90;99.90;;;;;;4446317;28;656945;-73
2021/05/17 01:38:04;;;;;;;11.40;4.75;;;9.00;99.90;;;;;;4429493;28;656420;-72
2021/05/17 01:40:51;;;;;;;9.27;4.50;;;9.00;99.90;;;;;;4447104;28;656663;-73
2021/05/17 01:43:40;;;;;;;10.83;3.97;;;9.10;99.90;;;;;;4409173;28;655612;-72
2021/05/17 01:46:29;;;;;;;9.57;3.93;;;9.10;99.90;;;;;;4423618;28;656739;-73
2021/05/17 01:49:17;;;;;;;7.37;3.83;;;9.20;99.90;;;;;;4446567;28;655706;-72
2021/05/17 01:52:04;;;;;;;7.80;3.43;;;9.20;99.90;;;;;;4424113;28;655957;-72
2021/05/17 01:54:52;;;;;;;8.00;3.33;;;9.30;99.90;;;;;;4448429;28;655788;-72
2021/05/17 01:57:39;;;;;;;11.07;3.77;;;9.30;99.90;;;;;;4428934;28;655381;-72
2021/05/17 02:00:26;;;;;;;11.00;3.67;;;9.30;99.90;;;;;;4443217;28;656627;-72
2021/05/17 02:03:14;;;;;;;6.70;4.10;;;9.40;99.90;;;;;;4427673;28;657254;-73
2021/05/17 02:06:01;;;;;;;7.17;3.23;;;9.40;99.90;;;;;;4444543;28;655374;-72
2021/05/17 02:08:48;;;;;;;7.87;3.00;;;9.40;99.90;;;;;;4422092;28;655780;-73
2021/05/17 02:11:36;;;;;;;6.23;3.20;;;9.40;99.90;;;;;;4450789;28;656612;-72
2021/05/17 02:14:24;;;;;;;5.50;3.30;;;9.40;99.90;;;;;;4419432;28;655570;-73
2021/05/17 02:17:11;;;;;;;8.03;3.20;;;9.40;99.90;;;;;;4441126;28;655690;-72
2021/05/17 02:19:58;;;;;;;7.03;3.00;;;9.40;99.90;;;;;;4422705;28;655817;-73
2021/05/17 02:22:45;;;;;;;5.53;3.70;;;9.30;99.90;;;;;;4441415;28;656650;-73
2021/05/17 02:25:32;;;;;;;6.40;3.10;;;9.30;99.90;;;;;;4423490;28;655346;-73
2021/05/17 02:28:20;;;;;;;9.23;3.07;;;9.30;99.90;;;;;;4451346;28;656532;-73
2021/05/17 02:31:08;;;;;;;5.20;3.37;;;9.30;99.90;;;;;;4448922;28;655786;-72
2021/05/17 02:33:55;;;;;;;10.03;3.47;;;9.30;99.90;;;;;;4420574;28;655615;-72
2021/05/17 02:36:43;;;;;;;3.77;3.00;;;9.30;99.90;;;;;;4420924;28;656864;-73
2021/05/17 02:39:30;;;;;;;9.17;3.30;;;9.30;99.90;;;;;;4439621;28;657417;-72
2021/05/17 02:42:18;;;;;;;7.47;2.75;;;9.30;99.90;;;;;;4428037;28;655695;-73
2021/05/17 02:45:07;;;;;;;7.60;3.57;;;9.30;99.90;;;;;;4441982;28;656796;-71
2021/05/17 02:47:56;;;;;;;13.43;3.17;;;9.30;99.90;;;;;;4428241;28;656430;-71
2021/05/17 02:50:45;;;;;;;6.87;3.07;;;9.40;99.90;;;;;;4429842;28;657023;-71
2021/05/17 02:53:56;;;;;;;8.60;2.30;;;9.40;99.90;;;;;;4444778;28;655373;-72
2021/05/17 02:57:08;;;;;;;3.80;2.37;;;9.40;99.90;;;;;;4432556;28;655873;-72
2021/05/17 03:00:11;;;;;;;11.03;2.80;;;9.40;99.90;;;;;;4400163;28;655698;-72
2021/05/17 03:03:08;;;;;;;10.97;3.13;;;9.40;99.90;;;;;;4407673;28;657143;-72
2021/05/17 03:06:00;;;;;;;7.50;2.90;;;9.50;99.90;;;;;;4425900;28;657139;-71
2021/05/17 03:08:53;;;;;;;6.77;2.90;;;9.50;99.90;;;;;;4419047;28;655642;-72
2021/05/17 03:11:41;;;;;;;4.93;3.17;;;9.50;99.90;;;;;;4426721;28;656349;-71
2021/05/17 03:14:29;;;;;;;5.67;3.27;;;9.60;99.90;;;;;;4431256;28;655687;-71
2021/05/17 03:17:16;;;;;;;12.20;3.20;;;9.60;99.90;;;;;;4434584;28;655811;-71
2021/05/17 03:20:06;;;;;;;5.70;2.93;;;9.60;99.90;;;;;;4428328;28;657283;-71
2021/05/17 03:22:54;;;;;;;8.83;3.37;;;9.60;99.90;;;;;;4430450;28;656968;-71
2021/05/17 03:25:43;;;;;;;7.23;3.63;;;9.60;99.90;;;;;;4450100;28;655629;-71
2021/05/17 03:28:30;;;;;;;7.93;3.63;;;9.60;99.90;;;;;;4430481;28;656708;-71
2021/05/17 03:31:17;;;;;;;10.90;3.53;;;9.60;99.90;;;;;;4441770;28;655497;-71
2021/05/17 03:34:04;;;;;;;7.40;3.90;;;9.70;99.90;;;;;;4452415;28;656346;-71
2021/05/17 03:36:52;;;;;;;5.70;3.50;;;9.70;99.90;;;;;;4449928;28;655488;-71
2021/05/17 03:39:39;;;;;;;5.10;3.63;;;9.80;99.90;;;;;;4421433;28;656982;-71
2021/05/17 03:42:26;;;;;;;9.93;3.40;;;9.80;99.90;;;;;;4441601;28;655682;-71
2021/05/17 03:45:14;;;;;;;7.17;3.80;;;9.80;99.90;;;;;;4428581;28;655575;-71
2021/05/17 03:48:01;;;;;;;8.33;5.00;;;9.80;99.90;;;;;;4454494;28;654952;-71
2021/05/17 03:50:48;;;;;;;11.30;4.43;;;9.90;99.90;;;;;;4423205;28;655985;-71
2021/05/17 03:53:36;;;;;;;8.37;4.07;;;9.90;99.90;;;;;;4441921;28;657631;-71
2021/05/17 03:56:23;;;;;;;8.43;3.77;;;10.00;99.90;;;;;;4422898;28;655323;-71
2021/05/17 03:59:14;;;;;;;7.80;3.97;;;10.00;99.90;;;;;;4439752;28;657255;-71
2021/05/17 04:02:01;;;;;;;9.43;4.57;;;10.10;99.90;;;;;;4424904;28;657921;-71
2021/05/17 04:04:56;;;;;;;14.10;5.43;;;10.10;99.90;;;;;;4428902;28;656436;-71
2021/05/17 04:07:58;;;;;;;18.20;5.80;;;10.10;99.90;;;;;;4423987;28;658155;-71
2021/05/17 04:13:51;;;;;;;14.57;4.97;;;10.30;99.90;;;;;;4422288;28;658179;-71
2021/05/17 04:16:38;;;;;;;12.17;4.50;;;10.40;99.90;;;;;;4427044;28;657730;-71
2021/05/17 04:19:27;;;;;;;14.10;4.97;;;10.50;99.90;;;;;;4449894;28;658017;-71
2021/05/17 04:22:14;;;;;;;13.37;5.57;;;10.50;99.90;;;;;;4427191;28;657682;-71
2021/05/17 04:25:02;;;;;;;13.70;5.70;;;10.40;99.90;;;;;;4445500;28;657072;-71
2021/05/17 04:27:50;;;;;;;12.20;5.67;;;10.40;99.90;;;;;;4422423;28;658117;-71
2021/05/17 04:30:37;;;;;;;17.40;6.80;;;10.40;99.90;;;;;;4441322;28;658342;-71
2021/05/17 04:33:25;;;;;;;11.00;5.03;;;10.50;99.90;;;;;;4424644;28;658766;-71
2021/05/17 04:36:12;;;;;;;11.23;5.13;;;10.60;99.90;;;;;;4431032;28;657805;-72
2021/05/17 04:38:59;;;;;;;12.17;5.00;;;10.60;99.90;;;;;;4446665;28;658638;-71
2021/05/17 04:41:47;;;;;;;17.57;6.13;;;10.80;99.90;;;;;;4450284;28;657291;-71
2021/05/17 04:44:35;;;;;;;15.67;5.97;;;10.90;99.90;;;;;;4426202;28;657480;-71
2021/05/17 04:47:22;;;;;;;15.53;5.90;;;11.00;99.90;;;;;;4425750;28;657698;-72
2021/05/17 04:50:10;;;;;;;11.07;5.13;;;11.10;99.90;;;;;;4445807;28;657881;-71
2021/05/17 04:52:58;;;;;;;12.07;5.97;;;11.30;99.90;;;;;;4426166;28;658125;-71
2021/05/17 04:55:45;;;;;;;17.10;6.90;;;11.40;99.90;;;;;;4438196;28;659062;-71
2021/05/17 04:58:32;;;;;;;12.43;6.03;;;11.50;99.90;;;;;;4438590;28;657808;-71
2021/05/17 05:01:20;;;;;;;11.53;5.80;;;11.60;99.90;;;;;;4441304;28;658428;-71
2021/05/17 05:04:07;;;;;;;10.13;6.23;;;11.60;99.90;;;;;;4426988;28;657485;-72
2021/05/17 05:06:54;;;;;;;16.90;7.40;;;11.70;99.90;;;;;;4448586;28;657972;-71
2021/05/17 05:09:42;;;;;;;15.90;7.53;;;11.80;99.90;;;;;;4443299;28;657155;-71
2021/05/17 05:12:29;;;;;;;16.97;7.33;;;11.80;99.90;;;;;;4424513;28;657871;-71
2021/05/17 05:15:16;;;;;;;16.30;6.37;;;11.80;99.90;;;;;;4445883;28;657594;-71
2021/05/17 05:18:04;;;;;;;14.73;7.13;;;11.80;99.90;;;;;;4425783;28;658104;-72
2021/05/17 05:20:51;;;;;;;15.20;5.70;;;11.80;99.90;;;;;;4445561;28;657891;-70
2021/05/17 05:23:38;;;;;;;12.43;5.70;;;11.80;99.90;;;;;;4419388;28;657583;-71
2021/05/17 05:26:45;;;;;;;14.40;5.90;;;11.80;99.90;;;;;;4445203;28;657750;-71
2021/05/17 05:29:40;;;;;;;10.10;5.30;;;11.80;99.90;;;;;;4403506;28;658549;-72
2021/05/17 05:32:31;;;;;;;13.77;5.47;;;11.80;99.90;;;;;;4403561;28;657806;-71
2021/05/17 05:35:19;;;;;;;10.03;5.23;;;11.80;99.90;;;;;;4417862;28;657766;-72
2021/05/17 05:38:06;;;;;;;11.07;4.63;;;11.90;99.90;;;;;;4441616;28;657490;-71
2021/05/17 05:40:53;;;;;;;11.70;4.37;;;12.00;99.90;;;;;;4420545;28;657725;-71
2021/05/17 05:43:40;;;;;;;10.33;5.10;;;12.10;99.90;;;;;;4448826;28;657407;-71
2021/05/17 05:46:32;;;;;;;9.17;4.30;;;12.10;99.90;;;;;;4428770;28;657695;-72
2021/05/17 05:49:26;;;;;;;10.63;4.60;;;12.20;99.90;;;;;;4423990;28;657142;-71
2021/05/17 05:52:21;;;;;;;9.00;3.70;;;12.30;99.90;;;;;;4427043;28;658017;-71
2021/05/17 05:55:16;;;;;;;7.73;3.10;;;12.30;99.90;;;;;;4418989;28;656307;-71
2021/05/17 05:58:11;;;;;;;5.87;2.33;;;12.40;99.90;;;;;;4422575;28;657206;-67
2021/05/17 06:01:04;;;;;;;6.13;2.70;;;12.40;99.90;;;;;;4403919;28;656628;-68
2021/05/17 06:03:51;;;;;;;4.73;2.40;;;12.40;99.90;;;;;;4416702;28;657401;-67
2021/05/17 06:06:38;;;;;;;6.33;3.10;;;12.40;99.90;;;;;;4420514;28;656557;-67
2021/05/17 06:09:26;;;;;;;9.57;2.90;;;12.50;99.90;;;;;;4450101;28;657212;-67
2021/05/17 06:12:14;;;;;;;6.47;3.10;;;12.50;99.90;;;;;;4428988;28;656497;-67
2021/05/17 06:15:03;;;;;;;6.27;3.23;;;12.50;99.90;;;;;;4439688;28;656462;-67
2021/05/17 06:17:51;;;;;;;4.50;2.57;;;12.50;99.90;;;;;;4415355;28;656746;-67
2021/05/17 06:20:39;;;;;;;3.97;2.30;;;12.70;99.90;;;;;;4425145;28;656773;-68
2021/05/17 06:23:26;;;;;;;6.83;3.30;;;12.70;99.90;;;;;;4446031;28;656955;-67
2021/05/17 06:26:14;;;;;;;8.40;3.30;;;12.80;99.90;;;;;;4431699;28;657867;-68
2021/05/17 06:29:02;;;;;;;8.30;3.43;;;12.80;99.90;;;;;;4444043;28;656341;-67
2021/05/17 06:31:49;;;;;;;8.07;3.57;;;12.90;99.90;;;;;;4427449;28;656764;-68
2021/05/17 06:34:36;;;;;;;13.07;4.20;;;12.90;99.90;;;;;;4450769;28;657342;-69
2021/05/17 06:37:23;;;;;;;10.70;4.57;;;13.00;99.90;;;;;;4430450;28;657674;-67
2021/05/17 06:40:11;;;;;;;10.80;5.07;;;13.10;99.90;;;;;;4433301;28;658627;-67
2021/05/17 06:43:00;;;;;;;13.00;4.80;;;13.30;99.90;;;;;;4426731;28;657808;-67
2021/05/17 06:45:47;;;;;;;10.88;5.75;;;13.30;99.90;;;;;;4432347;28;657622;-68
2021/05/17 06:48:41;;;;;;;11.80;5.50;;;13.50;99.90;;;;;;4444999;28;657918;-67
2021/05/17 06:51:29;;;;;;;12.97;5.97;;;13.60;99.90;;;;;;4423058;28;658047;-67
2021/05/17 06:54:20;;;;;;;13.20;4.97;;;13.80;99.90;;;;;;4449001;28;658021;-67
2021/05/17 06:57:13;;;;;;;12.23;4.80;;;13.90;99.90;;;;;;4446269;28;657436;-68
2021/05/17 07:00:05;;;;;;;6.90;3.83;;;14.20;99.90;;;;;;4424891;28;657695;-67
2021/05/17 07:02:53;;;;;;;6.20;3.43;;;14.60;99.90;;;;;;4403576;28;656994;-68
2021/05/17 07:05:40;;;;;;;8.13;3.50;;;14.90;99.90;;;;;;4447916;28;658279;-64
2021/05/17 07:11:38;;;;;;;5.53;2.70;;;15.50;99.90;;;;;;4409074;28;656696;-67
2021/05/17 07:14:25;;;;;;;6.93;3.00;;;15.70;99.90;;;;;;4426008;28;657710;-65
2021/05/17 07:17:13;;;;;;;8.40;2.50;;;15.90;99.90;;;;;;4431439;28;656908;-65
2021/05/17 07:20:01;;;;;;;5.23;2.90;;;16.20;99.90;;;;;;4450516;28;658058;-65
2021/05/17 07:25:53;;;;;;;5.60;2.30;;;16.60;99.90;;;;;;4408966;28;656860;-66
2021/05/17 07:28:40;;;;;;;3.17;2.10;;;16.60;99.90;;;;;;4443540;28;657652;-65
2021/05/17 07:31:27;;;;;;;3.50;2.30;;;16.70;99.90;;;;;;4445720;28;656875;-66
2021/05/17 07:34:15;;;;;;;5.87;2.47;;;16.70;99.90;;;;;;4444045;28;656061;-65
2021/05/17 07:37:02;;;;;;;5.13;2.80;;;16.70;99.90;;;;;;4433693;28;657488;-67
2021/05/17 07:39:49;;;;;;;7.60;2.50;;;16.80;99.90;;;;;;4454480;28;656970;-65
2021/05/17 07:42:36;;;;;;;5.13;2.27;;;17.00;99.90;;;;;;4450326;28;656931;-65
2021/05/17 07:45:23;;;;;;;4.27;2.00;;;17.30;99.90;;;;;;4430046;28;656467;-65
2021/05/17 07:48:11;;;;;;;10.63;2.37;;;17.70;99.90;;;;;;4444141;28;657862;-65
2021/05/17 07:50:59;;;;;;;3.17;1.80;;;18.00;99.90;;;;;;4428102;28;657434;-65
2021/05/17 07:53:46;;;;;;;3.70;1.90;;;18.10;99.90;;;;;;4442894;28;656980;-65
2021/05/17 07:56:33;;;;;;;4.80;2.20;;;18.10;99.90;;;;;;4431586;28;656524;-65
2021/05/17 07:59:20;;;;;;;2.90;1.70;;;18.20;99.90;;;;;;4450982;28;657324;-65
2021/05/17 08:02:07;;;;;;;3.67;1.57;;;18.30;99.90;;;;;;4424911;28;656490;-66
2021/05/17 08:04:54;;;;;;;3.63;1.50;;;18.20;99.90;;;;;;4450208;28;656242;-65
2021/05/17 08:07:42;;;;;;;3.97;1.30;;;18.30;99.90;;;;;;4442149;28;656912;-66
2021/05/17 08:10:29;;;;;;;2.20;1.10;;;18.50;99.90;;;;;;4429774;28;656363;-65
2021/05/17 08:13:16;;;;;;;3.63;1.17;;;18.30;99.90;;;;;;4441618;28;657663;-65
2021/05/17 08:16:04;;;;;;;3.37;1.10;;;18.20;99.90;;;;;;4426997;28;656790;-65
2021/05/17 08:18:51;;;;;;;1.30;1.07;;;18.30;99.90;;;;;;4442305;28;656143;-65
2021/05/17 08:21:39;;;;;;;4.83;1.00;;;18.50;99.90;;;;;;4428941;28;656978;-65
2021/05/17 08:24:27;;;;;;;3.33;1.17;;;18.50;99.90;;;;;;4447115;28;658463;-65
2021/05/17 08:27:14;;;;;;;2.57;1.30;;;18.70;99.90;;;;;;4425559;28;658108;-65
2021/05/17 08:30:01;;;;;;;6.73;1.00;;;18.70;99.90;;;;;;4448141;28;657572;-65
2021/05/17 08:32:48;;;;;;;7.20;1.40;;;18.50;99.90;;;;;;4420165;28;656458;-65
2021/05/17 08:35:35;;;;;;;1.67;1.10;;;18.50;99.90;;;;;;4450589;28;657304;-65
2021/05/17 08:38:22;;;;;;;4.03;1.10;;;18.50;99.90;;;;;;4423465;28;656840;-66
2021/05/17 08:41:12;;;;;;;3.37;0.90;;;18.50;99.90;;;;;;4446755;28;656498;-65
2021/05/17 08:43:59;;;;;;;2.97;1.33;;;18.50;99.90;;;;;;4425836;28;657050;-65
2021/05/17 08:46:47;;;;;;;1.97;1.10;;;18.50;99.90;;;;;;4443528;28;657498;-65
2021/05/17 08:49:34;;;;;;;4.83;1.20;;;18.50;99.90;;;;;;4429046;28;657852;-65
2021/05/17 08:52:21;;;;;;;4.70;1.20;;;18.40;99.90;;;;;;4441158;28;657156;-65
2021/05/17 08:55:10;;;;;;;1.00;0.90;;;18.50;99.90;;;;;;4422575;28;656365;-65
2021/05/17 08:57:58;;;;;;;5.03;1.10;;;18.30;99.90;;;;;;4449631;28;656210;-66
2021/05/17 09:00:46;;;;;;;3.00;1.00;;;18.30;99.90;;;;;;4446320;28;656813;-65
2021/05/17 09:03:32;;;;;;;3.73;0.90;;;18.10;99.90;;;;;;4420778;28;656943;-66
2021/05/17 09:06:22;;;;;;;2.03;0.90;;;18.10;99.90;;;;;;4452681;28;658006;-65
2021/05/17 09:09:23;;;;;;;3.53;1.30;;;17.80;99.90;;;;;;4428746;28;657650;-65
2021/05/17 09:12:11;;;;;;;2.87;1.40;;;17.60;99.90;;;;;;4421986;28;657456;-65
2021/05/17 09:14:59;;;;;;;4.07;1.77;;;17.20;99.90;;;;;;4429105;28;656565;-65
2021/05/17 09:17:54;;;;;;;5.30;1.97;;;16.80;99.90;;;;;;4448845;28;656820;-65
2021/05/17 09:20:42;;;;;;;2.93;2.23;;;16.60;99.90;;;;;;4416345;28;657450;-66
2021/05/17 09:23:31;;;;;;;7.10;2.57;;;16.20;99.90;;;;;;4424326;28;658011;-65
2021/05/17 09:26:20;;;;;;;7.20;2.40;;;16.00;99.90;;;;;;4428248;28;656399;-65
2021/05/17 09:29:07;;;;;;;4.93;2.37;;;15.70;99.90;;;;;;4428595;28;656329;-66
2021/05/17 09:31:55;;;;;;;5.40;2.40;;;15.40;99.90;;;;;;4451679;28;656375;-65
2021/05/17 09:34:42;;;;;;;5.93;2.50;;;15.40;99.90;;;;;;4422607;28;656901;-65
2021/05/17 09:37:41;;;;;;;4.30;2.30;;;15.20;99.90;;;;;;4451396;28;657042;-65
2021/05/17 09:40:29;;;;;;;5.83;2.43;;;15.30;99.90;;;;;;4398048;28;656954;-65
2021/05/17 09:43:16;;;;;;;9.40;2.27;;;15.20;99.90;;;;;;4444178;28;656375;-65
2021/05/17 09:46:03;;;;;;;5.60;2.60;;;15.20;99.90;;;;;;4429217;28;656775;-65
2021/05/17 09:48:51;;;;;;;5.73;2.30;;;15.10;99.90;;;;;;4449011;28;657413;-65
2021/05/17 09:51:38;;;;;;;4.83;2.27;;;15.00;99.90;;;;;;4429487;28;656633;-65
2021/05/17 09:54:25;;;;;;;3.30;2.10;;;14.90;99.90;;;;;;4445154;28;656687;-65
2021/05/17 09:57:15;;;;;;;9.00;2.20;;;14.90;99.90;;;;;;4432761;28;656562;-66
2021/05/17 10:00:07;;;;;;;4.20;2.23;;;14.90;99.90;;;;;;4425597;28;656225;-66
2021/05/17 10:02:54;;;;;;;5.83;2.37;;;14.80;99.90;;;;;;4431697;28;656577;-65
2021/05/17 10:05:42;;;;;;;4.20;2.37;;;14.80;99.90;;;;;;4443369;28;656738;-65
2021/05/17 10:08:29;;;;;;;5.73;2.60;;;14.70;99.90;;;;;;4431024;28;656221;-64
2021/05/17 10:11:17;;;;;;;4.47;1.90;;;14.50;99.90;;;;;;4443129;28;656481;-64
2021/05/17 10:14:04;;;;;;;6.47;2.40;;;14.30;99.90;;;;;;4422348;28;657078;-65
2021/05/17 10:16:52;;;;;;;4.77;2.10;;;14.10;99.90;;;;;;4447291;28;657236;-64
2021/05/17 10:19:40;;;;;;;4.13;2.10;;;14.00;99.90;;;;;;4424410;28;657306;-66
2021/05/17 10:22:29;;;;;;;4.53;1.97;;;13.90;99.90;;;;;;4449617;28;656588;-64
2021/05/17 10:25:21;;;;;;;3.80;2.00;;;13.90;99.90;;;;;;4427992;28;656893;-65
2021/05/17 10:28:10;;;;;;;3.73;1.70;;;13.90;99.90;;;;;;4427558;28;656913;-67
2021/05/17 10:31:07;;;;;;;3.63;2.00;;;14.00;99.90;;;;;;4428130;28;657034;-66
2021/05/17 10:33:58;;;;;;;5.50;2.10;;;13.90;99.90;;;;;;4426715;28;657057;-68
2021/05/17 10:36:51;;;;;;;6.17;2.33;;;13.90;99.90;;;;;;4427919;28;657842;-67
2021/05/17 10:39:42;;;;;;;7.53;2.80;;;13.90;99.90;;;;;;4429884;28;656526;-68
2021/05/17 10:42:37;;;;;;;7.13;3.13;;;13.90;99.90;;;;;;4425081;28;657779;-67
2021/05/17 10:48:35;;;;;;;4.20;2.57;;;14.00;99.90;;;;;;4414968;28;656476;-67
2021/05/17 10:51:23;;;;;;;10.67;2.90;;;13.90;99.90;;;;;;4431667;28;656840;-67
2021/05/17 10:54:21;;;;;;;6.23;2.13;;;13.80;99.90;;;;;;4448750;28;659997;-68
2021/05/17 10:57:18;;;;;;;3.67;2.30;;;13.70;99.90;;;;;;4400559;28;657128;-67
2021/05/17 11:00:25;;;;;;;3.00;2.17;;;13.70;99.90;;;;;;4426933;28;657434;-67
2021/05/17 11:03:15;;;;;;;5.38;3.00;;;13.70;99.90;;;;;;4407894;28;656404;-69
2021/05/17 11:06:04;;;;;;;3.83;2.17;;;13.80;99.90;;;;;;4430759;28;656580;-68
2021/05/17 11:08:51;;;;;;;7.60;2.30;;;13.90;99.90;;;;;;4450684;28;657214;-68
2021/05/17 11:11:38;;;;;;;4.17;2.03;;;13.90;99.90;;;;;;4430929;28;656602;-67
2021/05/17 11:14:29;;;;;;;4.23;1.90;;;14.00;99.90;;;;;;4453019;28;657354;-67
2021/05/17 11:17:16;;;;;;;2.33;1.43;;;14.00;99.90;;;;;;4426524;28;656717;-67
2021/05/17 11:20:32;;;;;;;6.63;1.60;;;14.10;99.90;;;;;;4427207;28;656659;-69
2021/05/17 11:23:21;;;;;;;4.40;1.90;;;14.20;99.90;;;;;;4383752;28;657998;-67
2021/05/17 11:26:10;;;;;;;3.63;1.73;;;14.30;99.90;;;;;;4426817;28;656525;-67
2021/05/17 11:29:08;;;;;;;2.77;1.77;;;14.30;99.90;;;;;;4447231;28;656294;-68
2021/05/17 11:32:10;;;;;;;3.57;1.60;;;14.40;99.90;;;;;;4423515;28;657143;-67
2021/05/17 11:34:57;;;;;;;4.13;1.90;;;14.30;99.90;;;;;;4402379;28;656820;-68
2021/05/17 11:38:08;;;;;;;3.60;1.90;;;14.20;99.90;;;;;;4453185;28;657079;-67
2021/05/17 11:40:55;;;;;;;3.08;1.90;;;14.20;99.90;;;;;;4424913;28;656521;-67
2021/05/17 11:43:43;;;;;;;4.47;2.13;;;14.20;99.90;;;;;;4427110;28;656481;-68
2021/05/17 11:46:31;;;;;;;4.63;2.00;;;14.20;99.90;;;;;;4454744;28;657544;-68
2021/05/17 11:49:20;;;;;;;6.70;2.10;;;14.20;99.90;;;;;;4427928;28;657036;-68
2021/05/17 11:52:09;;;;;;;9.53;2.17;;;14.20;99.90;;;;;;4425032;28;656598;-68
2021/05/17 11:54:57;;;;;;;6.90;2.13;;;14.20;99.90;;;;;;4441107;28;656856;-68
2021/05/17 11:57:44;;;;;;;5.93;2.40;;;14.30;99.90;;;;;;4426490;28;657536;-67
2021/05/17 12:00:31;;;;;;;7.07;2.00;;;14.30;99.90;;;;;;4452364;28;657164;-67
2021/05/17 12:03:18;;;;;;;3.93;2.07;;;14.30;99.90;;;;;;4430173;28;656900;-68
2021/05/17 12:06:06;;;;;;;5.17;1.70;;;14.30;99.90;;;;;;4448803;28;657793;-67
2021/05/17 12:08:53;;;;;;;2.33;1.57;;;14.20;99.90;;;;;;4415273;28;656912;-68
2021/05/17 12:11:50;;;;;;;2.57;1.70;;;14.20;99.90;;;;;;4434907;28;656599;-67
2021/05/17 12:14:38;;;;;;;4.37;1.90;;;14.10;99.90;;;;;;4414486;28;656068;-68
2021/05/17 12:17:25;;;;;;;3.50;1.80;;;13.90;99.90;;;;;;4453568;28;657814;-67
2021/05/17 12:20:13;;;;;;;4.93;1.90;;;13.70;99.90;;;;;;4430276;28;656380;-68
2021/05/17 12:23:01;;;;;;;4.87;2.13;;;13.60;99.90;;;;;;4449046;28;657185;-68
2021/05/17 12:25:48;;;;;;;3.60;1.80;;;13.60;99.90;;;;;;4426226;28;656330;-68
2021/05/17 12:28:40;;;;;;;5.33;1.87;;;13.60;99.90;;;;;;4448533;28;656558;-68
2021/05/17 12:31:27;;;;;;;6.60;2.10;;;13.60;99.90;;;;;;4447832;28;656908;-69
2021/05/17 12:34:14;;;;;;;2.20;1.73;;;13.50;99.90;;;;;;4453133;28;656626;-68
2021/05/17 12:37:01;;;;;;;5.22;1.90;;;13.50;99.90;;;;;;4449095;28;656905;-68
2021/05/17 12:40:30;;;;;;;6.43;1.83;;;13.40;99.90;;;;;;4429873;28;656469;-68
2021/05/17 12:43:20;;;;;;;7.00;2.03;;;13.30;99.90;;;;;;4415289;28;656965;-69
2021/05/17 12:46:10;;;;;;;10.27;2.20;;;13.20;99.90;;;;;;4447576;28;656555;-69
2021/05/17 12:48:57;;;;;;;2.63;1.60;;;13.10;99.90;;;;;;4435775;28;657778;-69
2021/05/17 12:51:52;;;;;;;4.07;2.10;;;13.00;99.90;;;;;;4452953;28;656520;-68
2021/05/17 12:54:40;;;;;;;4.30;1.83;;;12.90;99.90;;;;;;4425372;28;656409;-67
2021/05/17 12:57:27;;;;;;;2.73;1.60;;;12.90;99.90;;;;;;4445528;28;656745;-69
2021/05/17 13:00:17;;;;;;;3.77;1.53;;;12.90;99.90;;;;;;4446710;28;656309;-68
2021/05/17 13:03:06;;;;;;;3.10;1.53;;;12.90;99.90;;;;;;4424305;28;658071;-68
2021/05/17 13:05:58;;;;;;;3.75;1.30;;;12.80;99.90;;;;;;4425475;28;656556;-68
2021/05/17 13:08:51;;;;;;;2.87;1.30;;;12.70;99.90;;;;;;4418308;28;657577;-67
2021/05/17 13:11:38;;;;;;;2.77;1.60;;;12.80;99.90;;;;;;4404878;28;656985;-68
2021/05/17 13:14:25;;;;;;;3.13;1.77;;;12.80;99.90;;;;;;4444104;28;657296;-67
2021/05/17 13:17:15;;;;;;;7.40;1.70;;;12.80;99.90;;;;;;4428954;28;656507;-69
2021/05/17 13:20:04;;;;;;;3.10;1.43;;;12.80;99.90;;;;;;4439286;28;656495;-69
2021/05/17 13:23:20;;;;;;;2.70;1.80;;;12.80;99.90;;;;;;4437722;28;657198;-67
2021/05/17 13:32:32;;;;;;;3.60;1.67;;;12.90;99.90;;;;;;4370249;28;658787;-68
2021/05/17 13:35:19;;;;;;;5.90;2.40;;;13.00;99.90;;;;;;4374807;28;657764;-67
2021/05/17 13:38:06;;;;;;;2.90;1.80;;;13.10;99.90;;;;;;4385588;28;656373;-67
2021/05/17 13:40:53;;;;;;;2.97;2.00;;;13.10;99.90;;;;;;4367962;28;656756;-68
2021/05/17 13:43:40;;;;;;;5.03;2.07;;;13.20;99.90;;;;;;4397079;28;657682;-68
2021/05/17 13:46:27;;;;;;;3.37;1.80;;;13.20;99.90;;;;;;4378896;28;656609;-68
2021/05/17 13:49:16;;;;;;;7.77;2.53;;;13.30;99.90;;;;;;4397396;28;656786;-67
2021/05/17 13:52:03;;;;;;;2.43;1.70;;;13.30;99.90;;;;;;4369172;28;656735;-67
2021/05/17 13:54:50;;;;;;;3.43;1.60;;;13.20;99.90;;;;;;4393187;28;656265;-67
2021/05/17 13:57:38;;;;;;;2.60;1.70;;;13.10;99.90;;;;;;4369267;28;656911;-68
2021/05/17 14:00:25;;;;;;;6.27;1.87;;;13.00;99.90;;;;;;4387324;28;657626;-67
2021/05/17 14:03:15;;;;;;;3.23;1.77;;;13.10;99.90;;;;;;4388285;28;656678;-69
2021/05/17 14:06:03;;;;;;;4.17;1.83;;;13.00;99.90;;;;;;4377141;28;657023;-69
2021/05/17 14:08:50;;;;;;;5.47;1.60;;;12.90;99.90;;;;;;4393243;28;657199;-68
2021/05/17 14:11:37;;;;;;;5.57;2.10;;;12.90;99.90;;;;;;4382687;28;656597;-68
2021/05/17 14:14:25;;;;;;;2.43;1.80;;;12.90;99.90;;;;;;4442233;28;657434;-68
2021/05/17 14:17:12;;;;;;;5.53;2.00;;;12.90;99.90;;;;;;4447006;28;656405;-69
2021/05/17 14:19:59;;;;;;;4.55;1.80;;;12.80;99.90;;;;;;4452511;28;656138;-68
2021/05/17 14:22:51;;;;;;;6.27;1.87;;;12.80;99.90;;;;;;4447386;28;656753;-67
2021/05/17 14:25:38;;;;;;;2.43;1.70;;;12.70;99.90;;;;;;4405315;28;657841;-68
2021/05/17 14:28:27;;;;;;;4.37;1.73;;;12.50;99.90;;;;;;4448144;28;657784;-67
2021/05/17 14:31:15;;;;;;;4.77;1.90;;;12.50;99.90;;;;;;4410196;28;657642;-67
2021/05/17 14:34:03;;;;;;;4.50;1.80;;;12.50;99.90;;;;;;4420485;28;656669;-67
2021/05/17 14:36:50;;;;;;;4.13;1.70;;;12.50;99.90;;;;;;4451039;28;657534;-68
2021/05/17 14:39:38;;;;;;;10.47;1.90;;;12.40;99.90;;;;;;4428716;28;656690;-69
2021/05/17 14:42:25;;;;;;;2.50;1.60;;;12.40;99.90;;;;;;4449073;28;658484;-67
2021/05/17 14:45:13;;;;;;;2.87;1.60;;;12.40;99.90;;;;;;4431968;28;656635;-68
2021/05/17 14:48:00;;;;;;;3.67;1.83;;;12.30;99.90;;;;;;4453086;28;656225;-67